sensor_id;sensor_type;location;lat;lon;timestamp;temperature;humidity
9486;DHT22;4781;48.776;9.200;2023-07-22T00:00:45;16.20;99.90
9486;DHT22;4781;48.776;9.200;2023-07-22T00:03:14;16.10;99.90
9486;DHT22;4781;48.776;9.200;2023-07-22T00:05:42;16.10;99.90
9486;DHT22;4781;48.776;9.200;2023-07-22T00:08:10;16.10;99.90
9486;DHT22;4781;48.776;9.200;2023-07-22T00:10:42;16.00;99.90
9486;DHT22;4781;48.776;9.200;2023-07-22T00:13:10;16.00;99.90
9486;DHT22;4781;48.776;9.200;2023-07-22T00:15:39;15.90;99.90
9486;DHT22;4781;48.776;9.200;2023-07-22T00:18:07;15.90;99.90
9486;DHT22;4781;48.776;9.200;2023-07-22T00:20:36;15.80;99.90
9486;DHT22;4781;48.776;9.200;2023-07-22T00:23:05;15.80;99.90
9486;DHT22;4781;48.776;9.200;2023-07-22T00:25:33;15.80;99.90
9486;DHT22;4781;48.776;9.200;2023-07-22T00:28:02;15.70;99.90
9486;DHT22;4781;48.776;9.200;2023-07-22T00:30:32;15.70;99.90
9486;DHT22;4781;48.776;9.200;2023-07-22T00:33:01;15.70;99.90
9486;DHT22;4781;48.776;9.200;2023-07-22T00:35:30;15.60;99.90
9486;DHT22;4781;48.776;9.200;2023-07-22T00:37:59;15.60;99.90
9486;DHT22;4781;48.776;9.200;2023-07-22T00:40:28;15.50;99.90
9486;DHT22;4781;48.776;9.200;2023-07-22T00:42:59;15.50;99.90
9486;DHT22;4781;48.776;9.200;2023-07-22T00:45:28;15.50;99.90
9486;DHT22;4781;48.776;9.200;2023-07-22T00:47:56;15.50;99.90
9486;DHT22;4781;48.776;9.200;2023-07-22T00:50:24;15.40;99.90
9486;DHT22;4781;48.776;9.200;2023-07-22T00:52:54;15.40;99.90
9486;DHT22;4781;48.776;9.200;2023-07-22T00:55:23;15.40;99.90
9486;DHT22;4781;48.776;9.200;2023-07-22T00:57:51;15.40;99.90
9486;DHT22;4781;48.776;9.200;2023-07-22T01:00:20;15.40;99.90
9486;DHT22;4781;48.776;9.200;2023-07-22T01:02:48;15.30;99.90
9486;DHT22;4781;48.776;9.200;2023-07-22T01:05:17;15.30;99.90
9486;DHT22;4781;48.776;9.200;2023-07-22T01:07:46;15.20;99.90
9486;DHT22;4781;48.776;9.200;2023-07-22T01:10:14;15.20;99.90
9486;DHT22;4781;48.776;9.200;2023-07-22T01:12:44;15.20;99.90
9486;DHT22;4781;48.776;9.200;2023-07-22T01:15:12;15.10;99.90
9486;DHT22;4781;48.776;9.200;2023-07-22T01:17:41;15.10;99.90
9486;DHT22;4781;48.776;9.200;2023-07-22T01:20:10;15.10;99.90
9486;DHT22;4781;48.776;9.200;2023-07-22T01:22:39;15.10;99.90
9486;DHT22;4781;48.776;9.200;2023-07-22T01:25:11;15.10;99.90
9486;DHT22;4781;48.776;9.200;2023-07-22T01:27:39;15.00;99.90
9486;DHT22;4781;48.776;9.200;2023-07-22T01:30:08;15.00;99.90
9486;DHT22;4781;48.776;9.200;2023-07-22T01:32:37;14.90;99.90
9486;DHT22;4781;48.776;9.200;2023-07-22T01:35:06;14.90;99.90
9486;DHT22;4781;48.776;9.200;2023-07-22T01:37:37;14.90;99.90
9486;DHT22;4781;48.776;9.200;2023-07-22T01:40:06;14.90;99.90
9486;DHT22;4781;48.776;9.200;2023-07-22T01:42:42;14.90;99.90
9486;DHT22;4781;48.776;9.200;2023-07-22T01:45:10;14.90;99.90
9486;DHT22;4781;48.776;9.200;2023-07-22T01:47:39;14.90;99.90
9486;DHT22;4781;48.776;9.200;2023-07-22T01:50:08;15.00;99.90
9486;DHT22;4781;48.776;9.200;2023-07-22T01:52:39;14.80;99.90
9486;DHT22;4781;48.776;9.200;2023-07-22T01:55:08;14.80;99.90
9486;DHT22;4781;48.776;9.200;2023-07-22T01:57:37;14.90;99.90
9486;DHT22;4781;48.776;9.200;2023-07-22T02:00:07;14.80;99.90
9486;DHT22;4781;48.776;9.200;2023-07-22T02:02:37;14.80;99.90
9486;DHT22;4781;48.776;9.200;2023-07-22T02:05:06;14.80;99.90
9486;DHT22;4781;48.776;9.200;2023-07-22T02:07:37;14.80;99.90
9486;DHT22;4781;48.776;9.200;2023-07-22T02:10:06;14.70;99.90
9486;DHT22;4781;48.776;9.200;2023-07-22T02:12:36;14.70;99.90
9486;DHT22;4781;48.776;9.200;2023-07-22T02:15:05;14.70;99.90
9486;DHT22;4781;48.776;9.200;2023-07-22T02:17:34;14.70;99.90
9486;DHT22;4781;48.776;9.200;2023-07-22T02:20:03;14.70;99.90
9486;DHT22;4781;48.776;9.200;2023-07-22T02:22:32;14.70;99.90
9486;DHT22;4781;48.776;9.200;2023-07-22T02:25:00;14.70;99.90
9486;DHT22;4781;48.776;9.200;2023-07-22T02:27:29;14.70;99.90
9486;DHT22;4781;48.776;9.200;2023-07-22T02:29:58;14.60;99.90
9486;DHT22;4781;48.776;9.200;2023-07-22T02:32:26;14.60;99.90
9486;DHT22;4781;48.776;9.200;2023-07-22T02:34:55;14.60;99.90
9486;DHT22;4781;48.776;9.200;2023-07-22T02:37:23;14.60;99.90
9486;DHT22;4781;48.776;9.200;2023-07-22T02:39:53;14.50;99.90
9486;DHT22;4781;48.776;9.200;2023-07-22T02:42:22;14.40;99.90
9486;DHT22;4781;48.776;9.200;2023-07-22T02:44:50;14.40;99.90
9486;DHT22;4781;48.776;9.200;2023-07-22T02:47:19;14.40;99.90
9486;DHT22;4781;48.776;9.200;2023-07-22T02:49:47;14.40;99.90
9486;DHT22;4781;48.776;9.200;2023-07-22T02:52:16;14.40;99.90
9486;DHT22;4781;48.776;9.200;2023-07-22T02:55:03;14.40;99.90
9486;DHT22;4781;48.776;9.200;2023-07-22T02:57:32;14.30;99.90
9486;DHT22;4781;48.776;9.200;2023-07-22T03:00:01;14.30;99.90
9486;DHT22;4781;48.776;9.200;2023-07-22T03:02:32;14.30;99.90
9486;DHT22;4781;48.776;9.200;2023-07-22T03:05:01;14.30;99.90
9486;DHT22;4781;48.776;9.200;2023-07-22T03:07:32;14.30;99.90
9486;DHT22;4781;48.776;9.200;2023-07-22T03:10:07;14.20;99.90
9486;DHT22;4781;48.776;9.200;2023-07-22T03:12:36;14.20;99.90
9486;DHT22;4781;48.776;9.200;2023-07-22T03:15:05;14.20;99.90
9486;DHT22;4781;48.776;9.200;2023-07-22T03:17:35;14.20;99.90
9486;DHT22;4781;48.776;9.200;2023-07-22T03:20:05;14.20;99.90
9486;DHT22;4781;48.776;9.200;2023-07-22T03:22:35;14.20;99.90
9486;DHT22;4781;48.776;9.200;2023-07-22T03:25:03;14.00;99.90
9486;DHT22;4781;48.776;9.200;2023-07-22T03:27:34;14.10;99.90
9486;DHT22;4781;48.776;9.200;2023-07-22T03:30:05;14.00;99.90
9486;DHT22;4781;48.776;9.200;2023-07-22T03:32:35;14.00;99.90
9486;DHT22;4781;48.776;9.200;2023-07-22T03:35:04;14.00;99.90
9486;DHT22;4781;48.776;9.200;2023-07-22T03:37:34;13.90;99.90
9486;DHT22;4781;48.776;9.200;2023-07-22T03:40:05;13.90;99.90
9486;DHT22;4781;48.776;9.200;2023-07-22T03:42:36;13.90;99.90
9486;DHT22;4781;48.776;9.200;2023-07-22T03:45:05;13.90;99.90
9486;DHT22;4781;48.776;9.200;2023-07-22T03:47:38;13.90;99.90
9486;DHT22;4781;48.776;9.200;2023-07-22T03:50:07;13.90;99.90
9486;DHT22;4781;48.776;9.200;2023-07-22T03:52:36;13.90;99.90
9486;DHT22;4781;48.776;9.200;2023-07-22T03:55:05;13.90;99.90
9486;DHT22;4781;48.776;9.200;2023-07-22T03:57:33;13.90;99.90
9486;DHT22;4781;48.776;9.200;2023-07-22T04:00:03;13.90;99.90
9486;DHT22;4781;48.776;9.200;2023-07-22T04:02:32;13.90;99.90
9486;DHT22;4781;48.776;9.200;2023-07-22T04:05:00;13.90;99.90
9486;DHT22;4781;48.776;9.200;2023-07-22T04:07:28;13.90;99.90
9486;DHT22;4781;48.776;9.200;2023-07-22T04:09:57;13.90;99.90
9486;DHT22;4781;48.776;9.200;2023-07-22T04:12:25;13.90;99.90
9486;DHT22;4781;48.776;9.200;2023-07-22T04:14:53;13.90;99.90
9486;DHT22;4781;48.776;9.200;2023-07-22T04:17:22;13.90;99.90
9486;DHT22;4781;48.776;9.200;2023-07-22T04:19:51;13.90;99.90
9486;DHT22;4781;48.776;9.200;2023-07-22T04:22:21;14.00;99.90
9486;DHT22;4781;48.776;9.200;2023-07-22T04:24:49;14.00;99.90
9486;DHT22;4781;48.776;9.200;2023-07-22T04:27:18;14.10;99.90
9486;DHT22;4781;48.776;9.200;2023-07-22T04:29:46;14.10;99.90
9486;DHT22;4781;48.776;9.200;2023-07-22T04:32:15;14.10;99.90
9486;DHT22;4781;48.776;9.200;2023-07-22T04:34:43;14.20;99.90
9486;DHT22;4781;48.776;9.200;2023-07-22T04:37:11;14.20;99.90
9486;DHT22;4781;48.776;9.200;2023-07-22T04:39:40;14.20;99.90
9486;DHT22;4781;48.776;9.200;2023-07-22T04:42:09;14.30;99.90
9486;DHT22;4781;48.776;9.200;2023-07-22T04:44:37;14.30;99.90
9486;DHT22;4781;48.776;9.200;2023-07-22T04:47:07;14.30;99.90
9486;DHT22;4781;48.776;9.200;2023-07-22T04:49:35;14.40;99.90
9486;DHT22;4781;48.776;9.200;2023-07-22T04:52:05;14.40;99.90
9486;DHT22;4781;48.776;9.200;2023-07-22T04:54:34;14.50;99.90
9486;DHT22;4781;48.776;9.200;2023-07-22T04:57:02;14.50;99.90
9486;DHT22;4781;48.776;9.200;2023-07-22T04:59:31;14.60;99.90
9486;DHT22;4781;48.776;9.200;2023-07-22T05:02:00;14.70;99.90
9486;DHT22;4781;48.776;9.200;2023-07-22T05:04:28;14.80;99.90
9486;DHT22;4781;48.776;9.200;2023-07-22T05:06:56;14.80;99.90
9486;DHT22;4781;48.776;9.200;2023-07-22T05:09:25;15.00;99.90
9486;DHT22;4781;48.776;9.200;2023-07-22T05:11:53;15.00;99.90
9486;DHT22;4781;48.776;9.200;2023-07-22T05:14:21;15.10;99.90
9486;DHT22;4781;48.776;9.200;2023-07-22T05:16:50;15.10;99.90
9486;DHT22;4781;48.776;9.200;2023-07-22T05:19:19;15.20;99.90
9486;DHT22;4781;48.776;9.200;2023-07-22T05:21:47;15.30;99.90
9486;DHT22;4781;48.776;9.200;2023-07-22T05:24:15;15.30;99.90
9486;DHT22;4781;48.776;9.200;2023-07-22T05:26:44;15.30;99.90
9486;DHT22;4781;48.776;9.200;2023-07-22T05:29:12;15.40;99.90
9486;DHT22;4781;48.776;9.200;2023-07-22T05:31:41;15.50;99.90
9486;DHT22;4781;48.776;9.200;2023-07-22T05:34:10;15.60;99.90
9486;DHT22;4781;48.776;9.200;2023-07-22T05:36:39;15.70;99.90
9486;DHT22;4781;48.776;9.200;2023-07-22T05:39:08;15.80;99.90
9486;DHT22;4781;48.776;9.200;2023-07-22T05:41:36;16.00;99.90
9486;DHT22;4781;48.776;9.200;2023-07-22T05:44:04;16.00;99.90
9486;DHT22;4781;48.776;9.200;2023-07-22T05:46:33;16.10;99.90
9486;DHT22;4781;48.776;9.200;2023-07-22T05:49:01;16.30;99.90
9486;DHT22;4781;48.776;9.200;2023-07-22T05:51:30;16.50;99.90
9486;DHT22;4781;48.776;9.200;2023-07-22T05:53:58;16.50;99.90
9486;DHT22;4781;48.776;9.200;2023-07-22T05:56:26;16.60;99.90
9486;DHT22;4781;48.776;9.200;2023-07-22T05:58:55;16.80;99.90
9486;DHT22;4781;48.776;9.200;2023-07-22T06:01:26;17.00;99.90
9486;DHT22;4781;48.776;9.200;2023-07-22T06:03:54;17.10;99.90
9486;DHT22;4781;48.776;9.200;2023-07-22T06:06:22;17.20;99.90
9486;DHT22;4781;48.776;9.200;2023-07-22T06:08:51;17.40;99.90
9486;DHT22;4781;48.776;9.200;2023-07-22T06:11:19;17.40;99.90
9486;DHT22;4781;48.776;9.200;2023-07-22T06:13:48;17.50;99.90
9486;DHT22;4781;48.776;9.200;2023-07-22T06:16:16;17.50;99.90
9486;DHT22;4781;48.776;9.200;2023-07-22T06:18:44;17.50;99.90
9486;DHT22;4781;48.776;9.200;2023-07-22T06:21:13;17.60;99.90
9486;DHT22;4781;48.776;9.200;2023-07-22T06:23:42;17.70;99.90
9486;DHT22;4781;48.776;9.200;2023-07-22T06:26:10;17.90;99.90
9486;DHT22;4781;48.776;9.200;2023-07-22T06:28:38;18.00;99.90
9486;DHT22;4781;48.776;9.200;2023-07-22T06:31:07;18.10;99.90
9486;DHT22;4781;48.776;9.200;2023-07-22T06:33:35;18.20;99.90
9486;DHT22;4781;48.776;9.200;2023-07-22T06:36:04;18.30;99.90
9486;DHT22;4781;48.776;9.200;2023-07-22T06:38:32;18.40;99.90
9486;DHT22;4781;48.776;9.200;2023-07-22T06:41:01;18.50;99.90
9486;DHT22;4781;48.776;9.200;2023-07-22T06:43:29;18.60;99.90
9486;DHT22;4781;48.776;9.200;2023-07-22T06:45:58;18.80;99.90
9486;DHT22;4781;48.776;9.200;2023-07-22T06:48:26;19.00;99.90
9486;DHT22;4781;48.776;9.200;2023-07-22T06:50:54;19.10;99.90
9486;DHT22;4781;48.776;9.200;2023-07-22T06:53:23;19.10;99.90
9486;DHT22;4781;48.776;9.200;2023-07-22T06:55:52;19.00;99.90
9486;DHT22;4781;48.776;9.200;2023-07-22T06:58:21;19.20;99.90
9486;DHT22;4781;48.776;9.200;2023-07-22T07:00:54;19.40;99.90
9486;DHT22;4781;48.776;9.200;2023-07-22T07:03:23;19.50;99.90
9486;DHT22;4781;48.776;9.200;2023-07-22T07:05:53;19.70;99.90
9486;DHT22;4781;48.776;9.200;2023-07-22T07:08:23;19.80;99.90
9486;DHT22;4781;48.776;9.200;2023-07-22T07:10:51;19.90;99.90
9486;DHT22;4781;48.776;9.200;2023-07-22T07:13:20;20.10;99.90
9486;DHT22;4781;48.776;9.200;2023-07-22T07:15:48;20.20;99.90
9486;DHT22;4781;48.776;9.200;2023-07-22T07:18:17;20.10;99.90
9486;DHT22;4781;48.776;9.200;2023-07-22T07:20:45;20.20;99.90
9486;DHT22;4781;48.776;9.200;2023-07-22T07:23:14;20.20;99.90
9486;DHT22;4781;48.776;9.200;2023-07-22T07:25:42;20.20;99.90
9486;DHT22;4781;48.776;9.200;2023-07-22T07:28:11;20.30;99.90
9486;DHT22;4781;48.776;9.200;2023-07-22T07:30:41;20.30;99.90
9486;DHT22;4781;48.776;9.200;2023-07-22T07:33:09;20.50;99.90
9486;DHT22;4781;48.776;9.200;2023-07-22T07:35:37;20.60;99.90
9486;DHT22;4781;48.776;9.200;2023-07-22T07:38:06;20.60;99.90
9486;DHT22;4781;48.776;9.200;2023-07-22T07:40:34;20.80;99.90
9486;DHT22;4781;48.776;9.200;2023-07-22T07:43:03;20.90;99.90
9486;DHT22;4781;48.776;9.200;2023-07-22T07:45:31;21.10;99.90
9486;DHT22;4781;48.776;9.200;2023-07-22T07:47:59;21.30;99.90
9486;DHT22;4781;48.776;9.200;2023-07-22T07:50:28;21.40;99.90
9486;DHT22;4781;48.776;9.200;2023-07-22T07:52:56;21.60;99.90
9486;DHT22;4781;48.776;9.200;2023-07-22T07:55:26;21.70;99.90
9486;DHT22;4781;48.776;9.200;2023-07-22T07:57:54;21.80;99.90
9486;DHT22;4781;48.776;9.200;2023-07-22T08:00:22;21.90;99.90
9486;DHT22;4781;48.776;9.200;2023-07-22T08:02:51;22.10;99.90
9486;DHT22;4781;48.776;9.200;2023-07-22T08:05:19;22.30;99.90
9486;DHT22;4781;48.776;9.200;2023-07-22T08:07:47;22.40;99.90
9486;DHT22;4781;48.776;9.200;2023-07-22T08:10:16;22.60;99.90
9486;DHT22;4781;48.776;9.200;2023-07-22T08:12:44;22.70;99.90
9486;DHT22;4781;48.776;9.200;2023-07-22T08:15:13;22.70;99.90
9486;DHT22;4781;48.776;9.200;2023-07-22T08:17:41;22.90;99.90
9486;DHT22;4781;48.776;9.200;2023-07-22T08:20:10;23.10;99.90
9486;DHT22;4781;48.776;9.200;2023-07-22T08:22:39;23.20;96.90
9486;DHT22;4781;48.776;9.200;2023-07-22T08:25:07;23.40;97.90
9486;DHT22;4781;48.776;9.200;2023-07-22T08:27:36;23.50;95.80
9486;DHT22;4781;48.776;9.200;2023-07-22T08:30:05;23.50;96.60
9486;DHT22;4781;48.776;9.200;2023-07-22T08:32:34;23.50;94.30
9486;DHT22;4781;48.776;9.200;2023-07-22T08:35:03;23.30;93.80
9486;DHT22;4781;48.776;9.200;2023-07-22T08:37:32;23.30;93.40
9486;DHT22;4781;48.776;9.200;2023-07-22T08:40:00;23.50;95.40
9486;DHT22;4781;48.776;9.200;2023-07-22T08:42:30;23.70;92.40
9486;DHT22;4781;48.776;9.200;2023-07-22T08:45:01;23.70;91.70
9486;DHT22;4781;48.776;9.200;2023-07-22T08:47:32;23.90;93.50
9486;DHT22;4781;48.776;9.200;2023-07-22T08:50:02;24.00;90.80
9486;DHT22;4781;48.776;9.200;2023-07-22T08:52:33;24.00;90.60
9486;DHT22;4781;48.776;9.200;2023-07-22T08:55:02;24.00;90.70
9486;DHT22;4781;48.776;9.200;2023-07-22T08:57:31;24.10;91.40
9486;DHT22;4781;48.776;9.200;2023-07-22T09:00:00;24.30;86.10
9486;DHT22;4781;48.776;9.200;2023-07-22T09:02:35;24.30;87.90
9486;DHT22;4781;48.776;9.200;2023-07-22T09:05:03;24.50;90.00
9486;DHT22;4781;48.776;9.200;2023-07-22T09:07:32;24.60;86.90
9486;DHT22;4781;48.776;9.200;2023-07-22T09:10:01;24.60;86.80
9486;DHT22;4781;48.776;9.200;2023-07-22T09:12:30;24.40;84.30
9486;DHT22;4781;48.776;9.200;2023-07-22T09:15:01;24.20;85.60
9486;DHT22;4781;48.776;9.200;2023-07-22T09:17:30;24.10;84.80
9486;DHT22;4781;48.776;9.200;2023-07-22T09:19:59;24.00;82.90
9486;DHT22;4781;48.776;9.200;2023-07-22T09:22:28;23.80;81.00
9486;DHT22;4781;48.776;9.200;2023-07-22T09:27:48;23.60;81.60
9486;DHT22;4781;48.776;9.200;2023-07-22T09:30:32;23.60;81.30
9486;DHT22;4781;48.776;9.200;2023-07-22T09:33:03;23.70;82.80
9486;DHT22;4781;48.776;9.200;2023-07-22T09:38:13;23.70;80.30
9486;DHT22;4781;48.776;9.200;2023-07-22T09:40:44;23.70;80.40
9486;DHT22;4781;48.776;9.200;2023-07-22T09:43:13;24.10;83.30
9486;DHT22;4781;48.776;9.200;2023-07-22T09:45:41;23.70;79.80
9486;DHT22;4781;48.776;9.200;2023-07-22T09:48:11;23.60;80.90
9486;DHT22;4781;48.776;9.200;2023-07-22T09:50:40;23.70;80.50
9486;DHT22;4781;48.776;9.200;2023-07-22T09:53:08;23.90;79.80
9486;DHT22;4781;48.776;9.200;2023-07-22T09:55:37;24.00;81.00
9486;DHT22;4781;48.776;9.200;2023-07-22T09:58:05;24.00;79.40
9486;DHT22;4781;48.776;9.200;2023-07-22T10:00:36;23.90;81.20
9486;DHT22;4781;48.776;9.200;2023-07-22T10:03:09;24.10;78.50
9486;DHT22;4781;48.776;9.200;2023-07-22T10:05:38;24.10;79.60
9486;DHT22;4781;48.776;9.200;2023-07-22T10:08:08;24.40;80.80
9486;DHT22;4781;48.776;9.200;2023-07-22T10:10:38;24.50;78.90
9486;DHT22;4781;48.776;9.200;2023-07-22T10:13:07;24.70;79.20
9486;DHT22;4781;48.776;9.200;2023-07-22T10:15:36;25.00;79.60
9486;DHT22;4781;48.776;9.200;2023-07-22T10:18:05;25.20;78.50
9486;DHT22;4781;48.776;9.200;2023-07-22T10:20:34;25.40;77.10
9486;DHT22;4781;48.776;9.200;2023-07-22T10:23:03;25.40;78.00
9486;DHT22;4781;48.776;9.200;2023-07-22T10:25:32;25.50;78.80
9486;DHT22;4781;48.776;9.200;2023-07-22T10:28:00;25.50;77.20
9486;DHT22;4781;48.776;9.200;2023-07-22T10:30:29;25.50;76.20
9486;DHT22;4781;48.776;9.200;2023-07-22T10:32:58;25.20;75.10
9486;DHT22;4781;48.776;9.200;2023-07-22T10:35:37;25.10;73.60
9486;DHT22;4781;48.776;9.200;2023-07-22T10:38:12;25.00;75.30
9486;DHT22;4781;48.776;9.200;2023-07-22T10:40:49;25.10;75.80
9486;DHT22;4781;48.776;9.200;2023-07-22T10:43:30;25.10;75.10
9486;DHT22;4781;48.776;9.200;2023-07-22T10:46:10;25.30;75.10
9486;DHT22;4781;48.776;9.200;2023-07-22T10:48:40;25.30;72.60
9486;DHT22;4781;48.776;9.200;2023-07-22T10:51:14;25.40;73.40
9486;DHT22;4781;48.776;9.200;2023-07-22T10:53:46;25.40;74.20
9486;DHT22;4781;48.776;9.200;2023-07-22T10:56:22;25.80;74.70
9486;DHT22;4781;48.776;9.200;2023-07-22T11:12:14;26.60;71.60
9486;DHT22;4781;48.776;9.200;2023-07-22T11:14:51;26.70;70.80
9486;DHT22;4781;48.776;9.200;2023-07-22T11:17:31;26.50;70.40
9486;DHT22;4781;48.776;9.200;2023-07-22T11:20:01;26.30;70.90
9486;DHT22;4781;48.776;9.200;2023-07-22T11:22:30;26.10;70.30
9486;DHT22;4781;48.776;9.200;2023-07-22T11:24:59;26.00;71.20
9486;DHT22;4781;48.776;9.200;2023-07-22T11:27:29;25.80;70.80
9486;DHT22;4781;48.776;9.200;2023-07-22T11:29:58;25.70;72.20
9486;DHT22;4781;48.776;9.200;2023-07-22T11:32:27;25.80;72.80
9486;DHT22;4781;48.776;9.200;2023-07-22T11:34:55;25.80;73.90
9486;DHT22;4781;48.776;9.200;2023-07-22T11:37:23;25.90;73.40
9486;DHT22;4781;48.776;9.200;2023-07-22T11:39:52;25.90;73.40
9486;DHT22;4781;48.776;9.200;2023-07-22T11:42:20;26.10;72.50
9486;DHT22;4781;48.776;9.200;2023-07-22T11:44:49;25.90;73.50
9486;DHT22;4781;48.776;9.200;2023-07-22T11:47:17;26.10;73.10
9486;DHT22;4781;48.776;9.200;2023-07-22T11:49:47;26.30;72.70
9486;DHT22;4781;48.776;9.200;2023-07-22T11:52:18;26.00;72.70
9486;DHT22;4781;48.776;9.200;2023-07-22T11:54:47;26.10;73.10
9486;DHT22;4781;48.776;9.200;2023-07-22T11:57:26;26.20;73.90
9486;DHT22;4781;48.776;9.200;2023-07-22T11:59:55;26.40;72.90
9486;DHT22;4781;48.776;9.200;2023-07-22T12:02:26;26.60;73.10
9486;DHT22;4781;48.776;9.200;2023-07-22T12:05:03;26.80;74.50
9486;DHT22;4781;48.776;9.200;2023-07-22T12:07:34;26.90;71.10
9486;DHT22;4781;48.776;9.200;2023-07-22T12:10:05;26.90;72.70
9486;DHT22;4781;48.776;9.200;2023-07-22T12:12:35;26.40;70.90
9486;DHT22;4781;48.776;9.200;2023-07-22T12:15:11;26.50;71.90
9486;DHT22;4781;48.776;9.200;2023-07-22T12:18:02;26.30;71.80
9486;DHT22;4781;48.776;9.200;2023-07-22T12:20:33;25.90;71.90
9486;DHT22;4781;48.776;9.200;2023-07-22T12:23:05;25.70;72.70
9486;DHT22;4781;48.776;9.200;2023-07-22T12:25:33;25.60;72.20
9486;DHT22;4781;48.776;9.200;2023-07-22T12:28:01;25.80;73.00
9486;DHT22;4781;48.776;9.200;2023-07-22T12:30:30;26.10;72.80
9486;DHT22;4781;48.776;9.200;2023-07-22T12:32:58;26.40;70.40
9486;DHT22;4781;48.776;9.200;2023-07-22T12:35:27;26.70;73.40
9486;DHT22;4781;48.776;9.200;2023-07-22T12:37:55;26.80;71.50
9486;DHT22;4781;48.776;9.200;2023-07-22T12:40:23;27.00;71.00
9486;DHT22;4781;48.776;9.200;2023-07-22T12:42:52;27.20;72.10
9486;DHT22;4781;48.776;9.200;2023-07-22T12:45:20;27.30;70.50
9486;DHT22;4781;48.776;9.200;2023-07-22T12:47:49;27.20;70.10
9486;DHT22;4781;48.776;9.200;2023-07-22T12:50:17;27.00;69.50
9486;DHT22;4781;48.776;9.200;2023-07-22T12:52:45;26.90;69.20
9486;DHT22;4781;48.776;9.200;2023-07-22T12:55:14;26.80;67.50
9486;DHT22;4781;48.776;9.200;2023-07-22T12:57:42;26.70;68.00
9486;DHT22;4781;48.776;9.200;2023-07-22T13:00:11;26.70;68.50
9486;DHT22;4781;48.776;9.200;2023-07-22T13:02:39;26.70;69.20
9486;DHT22;4781;48.776;9.200;2023-07-22T13:05:08;26.60;68.00
9486;DHT22;4781;48.776;9.200;2023-07-22T13:07:37;26.30;67.90
9486;DHT22;4781;48.776;9.200;2023-07-22T13:10:06;26.40;68.10
9486;DHT22;4781;48.776;9.200;2023-07-22T13:12:37;26.70;69.00
9486;DHT22;4781;48.776;9.200;2023-07-22T13:15:06;26.80;68.20
9486;DHT22;4781;48.776;9.200;2023-07-22T13:17:34;26.80;67.90
9486;DHT22;4781;48.776;9.200;2023-07-22T13:20:04;26.70;67.90
9486;DHT22;4781;48.776;9.200;2023-07-22T13:22:38;26.60;67.40
9486;DHT22;4781;48.776;9.200;2023-07-22T13:25:07;26.40;67.80
9486;DHT22;4781;48.776;9.200;2023-07-22T13:27:38;26.60;68.70
9486;DHT22;4781;48.776;9.200;2023-07-22T13:30:07;26.80;68.80
9486;DHT22;4781;48.776;9.200;2023-07-22T13:32:36;26.80;67.60
9486;DHT22;4781;48.776;9.200;2023-07-22T13:35:05;26.90;66.90
9486;DHT22;4781;48.776;9.200;2023-07-22T13:37:35;26.90;68.10
9486;DHT22;4781;48.776;9.200;2023-07-22T13:40:04;27.20;67.20
9486;DHT22;4781;48.776;9.200;2023-07-22T13:42:35;27.10;67.80
9486;DHT22;4781;48.776;9.200;2023-07-22T13:45:05;27.00;66.70
9486;DHT22;4781;48.776;9.200;2023-07-22T13:47:34;26.90;66.40
9486;DHT22;4781;48.776;9.200;2023-07-22T13:50:02;27.00;67.00
9486;DHT22;4781;48.776;9.200;2023-07-22T13:52:31;27.10;65.40
9486;DHT22;4781;48.776;9.200;2023-07-22T13:54:59;27.10;65.90
9486;DHT22;4781;48.776;9.200;2023-07-22T13:57:28;27.30;66.10
9486;DHT22;4781;48.776;9.200;2023-07-22T13:59:56;27.30;65.90
9486;DHT22;4781;48.776;9.200;2023-07-22T14:02:25;27.40;65.70
9486;DHT22;4781;48.776;9.200;2023-07-22T14:04:54;27.60;66.90
9486;DHT22;4781;48.776;9.200;2023-07-22T14:07:22;27.40;65.90
9486;DHT22;4781;48.776;9.200;2023-07-22T14:09:50;27.30;66.30
9486;DHT22;4781;48.776;9.200;2023-07-22T14:12:19;27.40;66.90
9486;DHT22;4781;48.776;9.200;2023-07-22T14:14:48;27.40;65.70
9486;DHT22;4781;48.776;9.200;2023-07-22T14:17:16;27.10;65.50
9486;DHT22;4781;48.776;9.200;2023-07-22T14:19:45;26.90;65.80
9486;DHT22;4781;48.776;9.200;2023-07-22T14:22:13;26.80;65.90
9486;DHT22;4781;48.776;9.200;2023-07-22T14:24:41;26.80;66.70
9486;DHT22;4781;48.776;9.200;2023-07-22T14:27:10;26.90;67.50
9486;DHT22;4781;48.776;9.200;2023-07-22T14:29:38;27.20;67.10
9486;DHT22;4781;48.776;9.200;2023-07-22T14:32:07;27.30;67.30
9486;DHT22;4781;48.776;9.200;2023-07-22T14:34:35;27.50;66.20
9486;DHT22;4781;48.776;9.200;2023-07-22T14:37:04;27.50;66.30
9486;DHT22;4781;48.776;9.200;2023-07-22T14:39:33;27.60;66.80
9486;DHT22;4781;48.776;9.200;2023-07-22T14:42:01;27.60;66.40
9486;DHT22;4781;48.776;9.200;2023-07-22T14:44:30;27.50;65.70
9486;DHT22;4781;48.776;9.200;2023-07-22T14:46:58;27.70;66.40
9486;DHT22;4781;48.776;9.200;2023-07-22T14:49:26;27.90;65.50
9486;DHT22;4781;48.776;9.200;2023-07-22T14:51:55;27.70;65.40
9486;DHT22;4781;48.776;9.200;2023-07-22T14:54:23;27.60;64.90
9486;DHT22;4781;48.776;9.200;2023-07-22T14:56:52;27.50;65.80
9486;DHT22;4781;48.776;9.200;2023-07-22T14:59:20;27.50;65.60
9486;DHT22;4781;48.776;9.200;2023-07-22T15:01:48;27.50;65.20
9486;DHT22;4781;48.776;9.200;2023-07-22T15:04:17;27.40;65.00
9486;DHT22;4781;48.776;9.200;2023-07-22T15:06:45;27.40;64.60
9486;DHT22;4781;48.776;9.200;2023-07-22T15:09:13;27.20;64.50
9486;DHT22;4781;48.776;9.200;2023-07-22T15:11:42;27.10;65.00
9486;DHT22;4781;48.776;9.200;2023-07-22T15:14:10;26.90;64.50
9486;DHT22;4781;48.776;9.200;2023-07-22T15:16:39;26.90;65.20
9486;DHT22;4781;48.776;9.200;2023-07-22T15:19:09;26.90;65.20
9486;DHT22;4781;48.776;9.200;2023-07-22T15:21:38;26.80;65.40
9486;DHT22;4781;48.776;9.200;2023-07-22T15:24:06;26.50;64.90
9486;DHT22;4781;48.776;9.200;2023-07-22T15:26:34;26.30;64.70
9486;DHT22;4781;48.776;9.200;2023-07-22T15:29:03;26.20;65.60
9486;DHT22;4781;48.776;9.200;2023-07-22T15:31:31;26.20;65.50
9486;DHT22;4781;48.776;9.200;2023-07-22T15:34:00;26.30;65.40
9486;DHT22;4781;48.776;9.200;2023-07-22T15:36:28;26.50;65.70
9486;DHT22;4781;48.776;9.200;2023-07-22T15:38:57;26.50;65.60
9486;DHT22;4781;48.776;9.200;2023-07-22T15:41:25;26.50;66.20
9486;DHT22;4781;48.776;9.200;2023-07-22T15:43:54;26.50;65.80
9486;DHT22;4781;48.776;9.200;2023-07-22T15:46:22;26.30;65.80
9486;DHT22;4781;48.776;9.200;2023-07-22T15:48:50;26.00;65.50
9486;DHT22;4781;48.776;9.200;2023-07-22T15:51:19;26.00;66.50
9486;DHT22;4781;48.776;9.200;2023-07-22T15:53:47;26.00;66.70
9486;DHT22;4781;48.776;9.200;2023-07-22T15:56:16;26.00;66.60
9486;DHT22;4781;48.776;9.200;2023-07-22T15:58:44;26.00;66.20
9486;DHT22;4781;48.776;9.200;2023-07-22T16:01:12;26.10;66.50
9486;DHT22;4781;48.776;9.200;2023-07-22T16:03:41;26.10;67.70
9486;DHT22;4781;48.776;9.200;2023-07-22T16:06:09;26.10;67.70
9486;DHT22;4781;48.776;9.200;2023-07-22T16:08:37;26.20;67.70
9486;DHT22;4781;48.776;9.200;2023-07-22T16:11:06;26.30;67.50
9486;DHT22;4781;48.776;9.200;2023-07-22T16:13:35;26.30;67.60
9486;DHT22;4781;48.776;9.200;2023-07-22T16:16:03;26.30;68.30
9486;DHT22;4781;48.776;9.200;2023-07-22T16:18:32;26.30;68.10
9486;DHT22;4781;48.776;9.200;2023-07-22T16:21:00;26.30;68.30
9486;DHT22;4781;48.776;9.200;2023-07-22T16:23:29;26.30;68.20
9486;DHT22;4781;48.776;9.200;2023-07-22T16:25:59;26.20;68.20
9486;DHT22;4781;48.776;9.200;2023-07-22T16:28:27;26.10;68.50
9486;DHT22;4781;48.776;9.200;2023-07-22T16:30:55;26.20;69.10
9486;DHT22;4781;48.776;9.200;2023-07-22T16:33:24;26.20;68.90